sensor_id;sensor_type;location;lat;lon;timestamp;temperature;humidity
68433;DHT22;55412;51.350;17.056;2022-10-16T00:00:57;13.30;84.30
68433;DHT22;55412;51.350;17.056;2022-10-16T00:03:23;13.30;84.20
68433;DHT22;55412;51.350;17.056;2022-10-16T00:05:49;13.30;84.50
68433;DHT22;55412;51.350;17.056;2022-10-16T00:08:16;13.30;84.70
68433;DHT22;55412;51.350;17.056;2022-10-16T00:10:41;13.20;85.00
68433;DHT22;55412;51.350;17.056;2022-10-16T00:13:07;13.20;85.10
68433;DHT22;55412;51.350;17.056;2022-10-16T00:15:35;13.30;85.30
68433;DHT22;55412;51.350;17.056;2022-10-16T00:18:03;13.30;85.50
68433;DHT22;55412;51.350;17.056;2022-10-16T00:20:30;13.30;85.50
68433;DHT22;55412;51.350;17.056;2022-10-16T00:22:59;13.40;85.60
68433;DHT22;55412;51.350;17.056;2022-10-16T00:25:25;13.40;85.60
68433;DHT22;55412;51.350;17.056;2022-10-16T00:27:51;13.50;85.50
68433;DHT22;55412;51.350;17.056;2022-10-16T00:30:17;13.50;85.30
68433;DHT22;55412;51.350;17.056;2022-10-16T00:32:43;13.50;85.10
68433;DHT22;55412;51.350;17.056;2022-10-16T00:35:09;13.60;84.90
68433;DHT22;55412;51.350;17.056;2022-10-16T00:37:36;13.60;84.90
68433;DHT22;55412;51.350;17.056;2022-10-16T00:40:02;13.60;84.90
68433;DHT22;55412;51.350;17.056;2022-10-16T00:42:28;13.60;84.90
68433;DHT22;55412;51.350;17.056;2022-10-16T00:44:56;13.70;84.80
68433;DHT22;55412;51.350;17.056;2022-10-16T00:52:36;13.80;84.90
68433;DHT22;55412;51.350;17.056;2022-10-16T00:55:06;13.80;84.70
68433;DHT22;55412;51.350;17.056;2022-10-16T00:57:33;13.90;84.70
68433;DHT22;55412;51.350;17.056;2022-10-16T01:00:00;13.90;84.50
68433;DHT22;55412;51.350;17.056;2022-10-16T01:02:27;13.90;84.40
68433;DHT22;55412;51.350;17.056;2022-10-16T01:04:54;13.90;84.10
68433;DHT22;55412;51.350;17.056;2022-10-16T01:10:57;14.00;83.80
68433;DHT22;55412;51.350;17.056;2022-10-16T01:13:35;13.90;83.60
68433;DHT22;55412;51.350;17.056;2022-10-16T01:16:15;13.90;83.50
68433;DHT22;55412;51.350;17.056;2022-10-16T01:18:53;13.90;83.50
68433;DHT22;55412;51.350;17.056;2022-10-16T01:21:28;13.90;83.50
68433;DHT22;55412;51.350;17.056;2022-10-16T01:24:12;13.90;83.30
68433;DHT22;55412;51.350;17.056;2022-10-16T01:27:11;13.90;83.40
68433;DHT22;55412;51.350;17.056;2022-10-16T01:30:13;13.90;83.40
68433;DHT22;55412;51.350;17.056;2022-10-16T01:32:53;13.90;83.20
68433;DHT22;55412;51.350;17.056;2022-10-16T01:35:25;13.90;83.30
68433;DHT22;55412;51.350;17.056;2022-10-16T01:38:10;13.90;83.30
68433;DHT22;55412;51.350;17.056;2022-10-16T01:40:39;13.90;83.30
68433;DHT22;55412;51.350;17.056;2022-10-16T01:43:09;13.90;83.20
68433;DHT22;55412;51.350;17.056;2022-10-16T01:45:39;14.00;83.10
68433;DHT22;55412;51.350;17.056;2022-10-16T01:48:07;14.00;83.00
68433;DHT22;55412;51.350;17.056;2022-10-16T01:50:38;13.90;82.90
68433;DHT22;55412;51.350;17.056;2022-10-16T01:53:08;14.00;82.90
68433;DHT22;55412;51.350;17.056;2022-10-16T01:55:39;13.90;82.90
68433;DHT22;55412;51.350;17.056;2022-10-16T01:58:10;13.90;82.80
68433;DHT22;55412;51.350;17.056;2022-10-16T02:00:41;13.90;82.80
68433;DHT22;55412;51.350;17.056;2022-10-16T02:03:11;13.90;82.80
68433;DHT22;55412;51.350;17.056;2022-10-16T02:08:19;13.90;83.10
68433;DHT22;55412;51.350;17.056;2022-10-16T02:10:45;13.90;83.20
68433;DHT22;55412;51.350;17.056;2022-10-16T02:13:13;13.90;83.10
68433;DHT22;55412;51.350;17.056;2022-10-16T02:15:43;13.90;83.00
68433;DHT22;55412;51.350;17.056;2022-10-16T02:18:10;13.90;83.00
68433;DHT22;55412;51.350;17.056;2022-10-16T02:20:44;13.90;83.00
68433;DHT22;55412;51.350;17.056;2022-10-16T02:23:22;13.90;83.00
68433;DHT22;55412;51.350;17.056;2022-10-16T02:25:54;14.00;83.10
68433;DHT22;55412;51.350;17.056;2022-10-16T02:28:27;14.00;83.20
68433;DHT22;55412;51.350;17.056;2022-10-16T02:31:07;14.00;83.10
68433;DHT22;55412;51.350;17.056;2022-10-16T02:33:38;14.10;82.90
68433;DHT22;55412;51.350;17.056;2022-10-16T02:36:05;14.10;82.80
68433;DHT22;55412;51.350;17.056;2022-10-16T02:38:32;14.10;82.60
68433;DHT22;55412;51.350;17.056;2022-10-16T02:40:58;14.10;82.50
68433;DHT22;55412;51.350;17.056;2022-10-16T02:43:25;14.10;82.50
68433;DHT22;55412;51.350;17.056;2022-10-16T02:45:52;14.20;82.50
68433;DHT22;55412;51.350;17.056;2022-10-16T02:48:18;14.20;82.40
68433;DHT22;55412;51.350;17.056;2022-10-16T02:50:44;14.20;82.30
68433;DHT22;55412;51.350;17.056;2022-10-16T02:53:09;14.20;82.20
68433;DHT22;55412;51.350;17.056;2022-10-16T02:55:35;14.20;82.20
68433;DHT22;55412;51.350;17.056;2022-10-16T02:58:02;14.20;82.20
68433;DHT22;55412;51.350;17.056;2022-10-16T03:00:28;14.20;82.20
68433;DHT22;55412;51.350;17.056;2022-10-16T03:02:54;14.20;82.40
68433;DHT22;55412;51.350;17.056;2022-10-16T03:05:20;14.20;82.40
68433;DHT22;55412;51.350;17.056;2022-10-16T03:07:46;14.20;82.20
68433;DHT22;55412;51.350;17.056;2022-10-16T03:10:12;14.20;82.20
68433;DHT22;55412;51.350;17.056;2022-10-16T03:12:38;14.20;82.10
68433;DHT22;55412;51.350;17.056;2022-10-16T03:15:04;14.20;82.00
68433;DHT22;55412;51.350;17.056;2022-10-16T03:17:32;14.20;81.90
68433;DHT22;55412;51.350;17.056;2022-10-16T03:20:00;14.20;81.90
68433;DHT22;55412;51.350;17.056;2022-10-16T03:22:26;14.20;82.00
68433;DHT22;55412;51.350;17.056;2022-10-16T03:24:52;14.20;82.00
68433;DHT22;55412;51.350;17.056;2022-10-16T03:27:18;14.20;82.10
68433;DHT22;55412;51.350;17.056;2022-10-16T03:29:44;14.20;82.20
68433;DHT22;55412;51.350;17.056;2022-10-16T03:32:10;14.20;82.30
68433;DHT22;55412;51.350;17.056;2022-10-16T03:34:36;14.20;82.20
68433;DHT22;55412;51.350;17.056;2022-10-16T03:37:02;14.20;82.30
68433;DHT22;55412;51.350;17.056;2022-10-16T03:39:28;14.20;82.30
68433;DHT22;55412;51.350;17.056;2022-10-16T03:41:54;14.20;82.30
68433;DHT22;55412;51.350;17.056;2022-10-16T03:44:20;14.20;82.20
68433;DHT22;55412;51.350;17.056;2022-10-16T03:46:47;14.20;82.20
68433;DHT22;55412;51.350;17.056;2022-10-16T03:49:13;14.20;82.10
68433;DHT22;55412;51.350;17.056;2022-10-16T03:51:39;14.20;82.10
68433;DHT22;55412;51.350;17.056;2022-10-16T03:54:05;14.20;82.10
68433;DHT22;55412;51.350;17.056;2022-10-16T03:56:31;14.20;82.00
68433;DHT22;55412;51.350;17.056;2022-10-16T03:58:57;14.10;82.20
68433;DHT22;55412;51.350;17.056;2022-10-16T04:01:23;14.10;82.30
68433;DHT22;55412;51.350;17.056;2022-10-16T04:03:49;14.10;82.40
68433;DHT22;55412;51.350;17.056;2022-10-16T04:06:15;14.10;82.50
68433;DHT22;55412;51.350;17.056;2022-10-16T04:08:43;14.10;82.70
68433;DHT22;55412;51.350;17.056;2022-10-16T04:11:09;14.10;82.70
68433;DHT22;55412;51.350;17.056;2022-10-16T04:13:36;14.10;82.70
68433;DHT22;55412;51.350;17.056;2022-10-16T04:16:02;14.10;82.70
68433;DHT22;55412;51.350;17.056;2022-10-16T04:18:28;14.10;82.80
68433;DHT22;55412;51.350;17.056;2022-10-16T04:20:54;14.20;82.70
68433;DHT22;55412;51.350;17.056;2022-10-16T04:23:21;14.20;82.70
68433;DHT22;55412;51.350;17.056;2022-10-16T04:25:48;14.20;82.70
68433;DHT22;55412;51.350;17.056;2022-10-16T04:28:14;14.20;82.70
68433;DHT22;55412;51.350;17.056;2022-10-16T04:30:41;14.20;82.60
68433;DHT22;55412;51.350;17.056;2022-10-16T04:33:09;14.20;82.50
68433;DHT22;55412;51.350;17.056;2022-10-16T04:35:35;14.10;82.70
68433;DHT22;55412;51.350;17.056;2022-10-16T04:38:01;14.10;82.80
68433;DHT22;55412;51.350;17.056;2022-10-16T04:40:27;14.10;82.80
68433;DHT22;55412;51.350;17.056;2022-10-16T04:42:53;14.10;83.00
68433;DHT22;55412;51.350;17.056;2022-10-16T04:45:19;14.10;83.00
68433;DHT22;55412;51.350;17.056;2022-10-16T04:47:45;14.10;82.90
68433;DHT22;55412;51.350;17.056;2022-10-16T04:50:11;14.20;83.00
68433;DHT22;55412;51.350;17.056;2022-10-16T04:52:37;14.20;83.00
68433;DHT22;55412;51.350;17.056;2022-10-16T04:55:03;14.20;82.90
68433;DHT22;55412;51.350;17.056;2022-10-16T04:57:30;14.20;82.90
68433;DHT22;55412;51.350;17.056;2022-10-16T04:59:56;14.30;82.80
68433;DHT22;55412;51.350;17.056;2022-10-16T05:02:24;14.30;82.70
68433;DHT22;55412;51.350;17.056;2022-10-16T05:04:51;14.30;82.70
68433;DHT22;55412;51.350;17.056;2022-10-16T05:07:17;14.30;82.60
68433;DHT22;55412;51.350;17.056;2022-10-16T05:09:43;14.30;82.50
68433;DHT22;55412;51.350;17.056;2022-10-16T05:12:09;14.30;82.50
68433;DHT22;55412;51.350;17.056;2022-10-16T05:14:35;14.30;82.40
68433;DHT22;55412;51.350;17.056;2022-10-16T05:17:01;14.30;82.30
68433;DHT22;55412;51.350;17.056;2022-10-16T05:19:27;14.30;82.30
68433;DHT22;55412;51.350;17.056;2022-10-16T05:21:53;14.30;82.30
68433;DHT22;55412;51.350;17.056;2022-10-16T05:24:19;14.30;82.30
68433;DHT22;55412;51.350;17.056;2022-10-16T05:26:45;14.30;82.20
68433;DHT22;55412;51.350;17.056;2022-10-16T05:29:11;14.30;82.20
68433;DHT22;55412;51.350;17.056;2022-10-16T05:31:37;14.30;82.20
68433;DHT22;55412;51.350;17.056;2022-10-16T05:34:03;14.30;82.10
68433;DHT22;55412;51.350;17.056;2022-10-16T05:36:29;14.30;82.10
68433;DHT22;55412;51.350;17.056;2022-10-16T05:38:55;14.20;82.10
68433;DHT22;55412;51.350;17.056;2022-10-16T05:41:21;14.20;82.30
68433;DHT22;55412;51.350;17.056;2022-10-16T05:43:49;14.20;82.40
68433;DHT22;55412;51.350;17.056;2022-10-16T05:46:15;14.20;82.40
68433;DHT22;55412;51.350;17.056;2022-10-16T05:48:42;14.20;82.40
68433;DHT22;55412;51.350;17.056;2022-10-16T05:51:10;14.20;82.50
68433;DHT22;55412;51.350;17.056;2022-10-16T05:53:59;14.30;82.40
68433;DHT22;55412;51.350;17.056;2022-10-16T05:57:29;14.20;82.30
68433;DHT22;55412;51.350;17.056;2022-10-16T06:00:12;14.30;82.50
68433;DHT22;55412;51.350;17.056;2022-10-16T06:03:26;14.30;82.40
68433;DHT22;55412;51.350;17.056;2022-10-16T06:05:56;14.30;82.30
68433;DHT22;55412;51.350;17.056;2022-10-16T06:08:23;14.30;82.30
68433;DHT22;55412;51.350;17.056;2022-10-16T06:11:00;14.30;82.30
68433;DHT22;55412;51.350;17.056;2022-10-16T06:13:27;14.30;82.30
68433;DHT22;55412;51.350;17.056;2022-10-16T06:15:56;14.30;82.20
68433;DHT22;55412;51.350;17.056;2022-10-16T06:18:23;14.40;82.20
68433;DHT22;55412;51.350;17.056;2022-10-16T06:20:49;14.40;82.00
68433;DHT22;55412;51.350;17.056;2022-10-16T06:23:15;14.40;81.80
68433;DHT22;55412;51.350;17.056;2022-10-16T06:25:42;14.40;81.90
68433;DHT22;55412;51.350;17.056;2022-10-16T06:28:08;14.40;81.90
68433;DHT22;55412;51.350;17.056;2022-10-16T06:30:34;14.40;81.80
68433;DHT22;55412;51.350;17.056;2022-10-16T06:33:02;14.50;81.70
68433;DHT22;55412;51.350;17.056;2022-10-16T06:35:28;14.50;81.80
68433;DHT22;55412;51.350;17.056;2022-10-16T06:37:54;14.50;81.70
68433;DHT22;55412;51.350;17.056;2022-10-16T06:40:20;14.60;81.60
68433;DHT22;55412;51.350;17.056;2022-10-16T06:42:46;14.60;81.50
68433;DHT22;55412;51.350;17.056;2022-10-16T06:45:12;14.60;81.40
68433;DHT22;55412;51.350;17.056;2022-10-16T06:47:38;14.70;81.30
68433;DHT22;55412;51.350;17.056;2022-10-16T06:50:05;14.70;81.10
68433;DHT22;55412;51.350;17.056;2022-10-16T06:52:34;14.70;81.00
68433;DHT22;55412;51.350;17.056;2022-10-16T06:55:00;14.80;80.80
68433;DHT22;55412;51.350;17.056;2022-10-16T06:57:29;14.80;80.90
68433;DHT22;55412;51.350;17.056;2022-10-16T06:59:55;14.90;80.70
68433;DHT22;55412;51.350;17.056;2022-10-16T07:02:21;14.90;80.70
68433;DHT22;55412;51.350;17.056;2022-10-16T07:04:47;15.00;80.70
68433;DHT22;55412;51.350;17.056;2022-10-16T07:07:13;15.00;80.70
68433;DHT22;55412;51.350;17.056;2022-10-16T07:09:40;15.00;80.80
68433;DHT22;55412;51.350;17.056;2022-10-16T07:12:06;15.00;80.50
68433;DHT22;55412;51.350;17.056;2022-10-16T07:14:32;15.00;80.50
68433;DHT22;55412;51.350;17.056;2022-10-16T07:16:59;15.10;80.60
68433;DHT22;55412;51.350;17.056;2022-10-16T07:19:25;15.10;80.50
68433;DHT22;55412;51.350;17.056;2022-10-16T07:21:52;15.20;80.60
68433;DHT22;55412;51.350;17.056;2022-10-16T07:24:18;15.30;80.50
68433;DHT22;55412;51.350;17.056;2022-10-16T07:26:45;15.40;79.80
68433;DHT22;55412;51.350;17.056;2022-10-16T07:29:18;15.60;79.50
68433;DHT22;55412;51.350;17.056;2022-10-16T07:31:46;15.70;79.00
68433;DHT22;55412;51.350;17.056;2022-10-16T07:34:14;15.80;78.70
68433;DHT22;55412;51.350;17.056;2022-10-16T07:36:43;15.90;78.30
68433;DHT22;55412;51.350;17.056;2022-10-16T07:39:10;16.10;77.90
68433;DHT22;55412;51.350;17.056;2022-10-16T07:41:36;16.40;76.90
68433;DHT22;55412;51.350;17.056;2022-10-16T07:44:03;16.60;75.80
68433;DHT22;55412;51.350;17.056;2022-10-16T07:46:30;16.90;74.90
68433;DHT22;55412;51.350;17.056;2022-10-16T07:48:57;17.20;74.40
68433;DHT22;55412;51.350;17.056;2022-10-16T07:51:25;17.60;72.80
68433;DHT22;55412;51.350;17.056;2022-10-16T07:53:52;17.90;71.30
68433;DHT22;55412;51.350;17.056;2022-10-16T07:56:19;18.10;70.70
68433;DHT22;55412;51.350;17.056;2022-10-16T07:58:46;18.20;70.90
68433;DHT22;55412;51.350;17.056;2022-10-16T08:01:14;18.20;70.50
68433;DHT22;55412;51.350;17.056;2022-10-16T08:03:49;18.40;70.80
68433;DHT22;55412;51.350;17.056;2022-10-16T08:06:18;18.50;70.00
68433;DHT22;55412;51.350;17.056;2022-10-16T08:08:44;18.70;69.60
68433;DHT22;55412;51.350;17.056;2022-10-16T08:11:10;18.80;68.90
68433;DHT22;55412;51.350;17.056;2022-10-16T08:13:37;18.90;68.70
68433;DHT22;55412;51.350;17.056;2022-10-16T08:16:03;19.00;68.90
68433;DHT22;55412;51.350;17.056;2022-10-16T08:18:38;19.20;67.90
68433;DHT22;55412;51.350;17.056;2022-10-16T08:21:06;19.20;68.20
68433;DHT22;55412;51.350;17.056;2022-10-16T08:23:33;19.20;67.90
68433;DHT22;55412;51.350;17.056;2022-10-16T08:26:05;19.30;67.80
68433;DHT22;55412;51.350;17.056;2022-10-16T08:28:32;19.40;66.90
68433;DHT22;55412;51.350;17.056;2022-10-16T08:31:13;19.50;67.10
68433;DHT22;55412;51.350;17.056;2022-10-16T08:33:42;19.60;67.00
68433;DHT22;55412;51.350;17.056;2022-10-16T08:36:11;19.70;67.00
68433;DHT22;55412;51.350;17.056;2022-10-16T08:38:38;19.90;66.20
68433;DHT22;55412;51.350;17.056;2022-10-16T08:41:25;20.00;65.70
68433;DHT22;55412;51.350;17.056;2022-10-16T08:47:04;20.40;65.00
68433;DHT22;55412;51.350;17.056;2022-10-16T08:49:31;20.60;64.20
68433;DHT22;55412;51.350;17.056;2022-10-16T08:51:58;20.60;63.70
68433;DHT22;55412;51.350;17.056;2022-10-16T08:54:36;20.60;63.50
68433;DHT22;55412;51.350;17.056;2022-10-16T08:57:11;20.60;63.60
68433;DHT22;55412;51.350;17.056;2022-10-16T08:59:39;20.70;63.60
68433;DHT22;55412;51.350;17.056;2022-10-16T09:13:47;20.70;62.90
68433;DHT22;55412;51.350;17.056;2022-10-16T09:16:24;20.50;63.30
68433;DHT22;55412;51.350;17.056;2022-10-16T09:21:42;20.60;64.00
68433;DHT22;55412;51.350;17.056;2022-10-16T09:24:17;20.80;64.10
68433;DHT22;55412;51.350;17.056;2022-10-16T09:26:46;21.10;62.90
68433;DHT22;55412;51.350;17.056;2022-10-16T09:29:14;21.30;62.80
68433;DHT22;55412;51.350;17.056;2022-10-16T09:31:47;21.50;61.80
68433;DHT22;55412;51.350;17.056;2022-10-16T09:34:34;21.70;61.40
68433;DHT22;55412;51.350;17.056;2022-10-16T09:37:05;21.70;60.20
68433;DHT22;55412;51.350;17.056;2022-10-16T09:39:50;21.40;61.40
68433;DHT22;55412;51.350;17.056;2022-10-16T09:42:27;21.20;62.30
68433;DHT22;55412;51.350;17.056;2022-10-16T09:44:57;21.20;63.00
68433;DHT22;55412;51.350;17.056;2022-10-16T09:47:26;21.30;62.30
68433;DHT22;55412;51.350;17.056;2022-10-16T09:50:00;21.40;61.60
68433;DHT22;55412;51.350;17.056;2022-10-16T09:52:30;21.40;61.70
68433;DHT22;55412;51.350;17.056;2022-10-16T09:54:59;21.30;61.90
68433;DHT22;55412;51.350;17.056;2022-10-16T09:57:35;21.40;61.80
68433;DHT22;55412;51.350;17.056;2022-10-16T10:00:08;21.30;61.30
68433;DHT22;55412;51.350;17.056;2022-10-16T10:02:36;21.30;61.90
68433;DHT22;55412;51.350;17.056;2022-10-16T10:05:06;21.30;62.10
68433;DHT22;55412;51.350;17.056;2022-10-16T10:07:44;21.30;62.10
68433;DHT22;55412;51.350;17.056;2022-10-16T10:10:25;21.40;62.40
68433;DHT22;55412;51.350;17.056;2022-10-16T10:12:56;21.50;62.20
68433;DHT22;55412;51.350;17.056;2022-10-16T10:15:23;21.60;61.30
68433;DHT22;55412;51.350;17.056;2022-10-16T10:17:52;21.50;61.20
68433;DHT22;55412;51.350;17.056;2022-10-16T10:22:53;21.50;61.90
68433;DHT22;55412;51.350;17.056;2022-10-16T10:43:16;22.90;58.20
68433;DHT22;55412;51.350;17.056;2022-10-16T10:46:09;22.80;57.80
68433;DHT22;55412;51.350;17.056;2022-10-16T10:51:53;23.60;55.90
68433;DHT22;55412;51.350;17.056;2022-10-16T11:06:55;22.50;58.60
68433;DHT22;55412;51.350;17.056;2022-10-16T11:09:34;22.40;59.60
68433;DHT22;55412;51.350;17.056;2022-10-16T11:15:04;22.00;60.70
68433;DHT22;55412;51.350;17.056;2022-10-16T11:20:34;22.00;60.20
68433;DHT22;55412;51.350;17.056;2022-10-16T11:23:16;22.60;58.90
68433;DHT22;55412;51.350;17.056;2022-10-16T11:25:48;24.30;55.30
68433;DHT22;55412;51.350;17.056;2022-10-16T11:31:10;28.60;45.80
68433;DHT22;55412;51.350;17.056;2022-10-16T11:33:49;30.50;43.00
68433;DHT22;55412;51.350;17.056;2022-10-16T11:39:10;33.60;37.20
68433;DHT22;55412;51.350;17.056;2022-10-16T11:41:48;34.80;35.50
68433;DHT22;55412;51.350;17.056;2022-10-16T11:47:36;33.20;36.60
68433;DHT22;55412;51.350;17.056;2022-10-16T11:50:21;31.80;38.90
68433;DHT22;55412;51.350;17.056;2022-10-16T11:53:12;31.10;39.90
68433;DHT22;55412;51.350;17.056;2022-10-16T11:55:43;29.60;41.60
68433;DHT22;55412;51.350;17.056;2022-10-16T11:58:30;28.00;45.20
68433;DHT22;55412;51.350;17.056;2022-10-16T12:06:43;25.10;50.20
68433;DHT22;55412;51.350;17.056;2022-10-16T12:09:25;24.80;51.50
68433;DHT22;55412;51.350;17.056;2022-10-16T12:11:53;24.50;51.70
68433;DHT22;55412;51.350;17.056;2022-10-16T12:14:39;24.30;52.60
68433;DHT22;55412;51.350;17.056;2022-10-16T12:22:47;23.70;55.10
68433;DHT22;55412;51.350;17.056;2022-10-16T12:28:39;23.00;56.00
68433;DHT22;55412;51.350;17.056;2022-10-16T12:30:42;22.80;56.90
68433;DHT22;55412;51.350;17.056;2022-10-16T12:33:27;22.60;57.60
68433;DHT22;55412;51.350;17.056;2022-10-16T12:35:56;22.30;58.20
68433;DHT22;55412;51.350;17.056;2022-10-16T12:38:47;22.20;59.00
68433;DHT22;55412;51.350;17.056;2022-10-16T12:41:28;22.20;59.10
68433;DHT22;55412;51.350;17.056;2022-10-16T12:43:56;22.20;59.30
68433;DHT22;55412;51.350;17.056;2022-10-16T12:51:35;22.30;59.80
68433;DHT22;55412;51.350;17.056;2022-10-16T12:54:30;22.40;59.40
68433;DHT22;55412;51.350;17.056;2022-10-16T13:03:22;22.50;59.10
68433;DHT22;55412;51.350;17.056;2022-10-16T13:06:35;22.50;58.70
68433;DHT22;55412;51.350;17.056;2022-10-16T13:09:54;22.50;59.50
68433;DHT22;55412;51.350;17.056;2022-10-16T13:13:04;22.40;59.30
68433;DHT22;55412;51.350;17.056;2022-10-16T13:18:38;22.30;59.40
68433;DHT22;55412;51.350;17.056;2022-10-16T13:22:27;22.30;59.80
68433;DHT22;55412;51.350;17.056;2022-10-16T13:24:44;22.10;60.00
68433;DHT22;55412;51.350;17.056;2022-10-16T13:27:33;21.90;60.60
68433;DHT22;55412;51.350;17.056;2022-10-16T13:30:17;21.80;61.00
68433;DHT22;55412;51.350;17.056;2022-10-16T13:32:58;21.80;61.20
68433;DHT22;55412;51.350;17.056;2022-10-16T13:35:50;21.80;61.00
68433;DHT22;55412;51.350;17.056;2022-10-16T13:38:26;21.90;61.20
68433;DHT22;55412;51.350;17.056;2022-10-16T13:41:00;21.90;60.70
68433;DHT22;55412;51.350;17.056;2022-10-16T13:43:35;21.90;60.60
68433;DHT22;55412;51.350;17.056;2022-10-16T13:46:13;21.80;61.30
68433;DHT22;55412;51.350;17.056;2022-10-16T13:48:44;21.80;61.10
68433;DHT22;55412;51.350;17.056;2022-10-16T13:51:22;21.80;61.30
68433;DHT22;55412;51.350;17.056;2022-10-16T13:53:48;21.70;61.20
68433;DHT22;55412;51.350;17.056;2022-10-16T13:56:26;21.70;62.00
68433;DHT22;55412;51.350;17.056;2022-10-16T13:59:05;21.70;61.60
68433;DHT22;55412;51.350;17.056;2022-10-16T14:01:41;21.70;61.30
68433;DHT22;55412;51.350;17.056;2022-10-16T14:04:11;21.60;61.60
68433;DHT22;55412;51.350;17.056;2022-10-16T14:06:42;21.50;62.10
68433;DHT22;55412;51.350;17.056;2022-10-16T14:09:27;21.40;62.20
68433;DHT22;55412;51.350;17.056;2022-10-16T14:12:01;21.40;62.70
68433;DHT22;55412;51.350;17.056;2022-10-16T14:14:55;21.40;62.80
68433;DHT22;55412;51.350;17.056;2022-10-16T14:19:57;21.20;63.30
68433;DHT22;55412;51.350;17.056;2022-10-16T14:22:40;21.10;63.10
68433;DHT22;55412;51.350;17.056;2022-10-16T14:28:32;20.90;64.00
68433;DHT22;55412;51.350;17.056;2022-10-16T14:30:56;20.90;64.20
68433;DHT22;55412;51.350;17.056;2022-10-16T14:38:39;20.80;64.70
68433;DHT22;55412;51.350;17.056;2022-10-16T14:41:06;20.80;64.80
68433;DHT22;55412;51.350;17.056;2022-10-16T14:43:41;20.80;65.10
68433;DHT22;55412;51.350;17.056;2022-10-16T14:46:19;20.70;65.20
68433;DHT22;55412;51.350;17.056;2022-10-16T14:49:12;20.60;65.50
68433;DHT22;55412;51.350;17.056;2022-10-16T14:51:42;20.60;65.80
68433;DHT22;55412;51.350;17.056;2022-10-16T14:54:11;20.50;66.00
68433;DHT22;55412;51.350;17.056;2022-10-16T14:56:56;20.50;66.10
68433;DHT22;55412;51.350;17.056;2022-10-16T15:01:59;20.40;66.40
68433;DHT22;55412;51.350;17.056;2022-10-16T15:04:27;20.30;66.60
68433;DHT22;55412;51.350;17.056;2022-10-16T15:06:53;20.30;66.50
68433;DHT22;55412;51.350;17.056;2022-10-16T15:09:19;20.30;66.70
68433;DHT22;55412;51.350;17.056;2022-10-16T15:11:45;20.30;66.90
68433;DHT22;55412;51.350;17.056;2022-10-16T15:14:12;20.20;67.10
68433;DHT22;55412;51.350;17.056;2022-10-16T15:16:39;20.10;67.30
68433;DHT22;55412;51.350;17.056;2022-10-16T15:19:05;20.10;67.40
68433;DHT22;55412;51.350;17.056;2022-10-16T15:21:32;20.00;67.70
68433;DHT22;55412;51.350;17.056;2022-10-16T15:23:59;19.90;68.10
68433;DHT22;55412;51.350;17.056;2022-10-16T15:26:27;19.90;68.40
68433;DHT22;55412;51.350;17.056;2022-10-16T15:28:54;19.90;68.50
68433;DHT22;55412;51.350;17.056;2022-10-16T15:31:21;19.80;68.80
68433;DHT22;55412;51.350;17.056;2022-10-16T15:33:51;19.70;69.00
68433;DHT22;55412;51.350;17.056;2022-10-16T15:36:29;19.70;69.10
68433;DHT22;55412;51.350;17.056;2022-10-16T15:39:04;19.70;69.30
68433;DHT22;55412;51.350;17.056;2022-10-16T15:41:31;19.60;69.50
68433;DHT22;55412;51.350;17.056;2022-10-16T15:43:57;19.50;69.70
68433;DHT22;55412;51.350;17.056;2022-10-16T15:46:25;19.50;69.80
68433;DHT22;55412;51.350;17.056;2022-10-16T15:48:51;19.50;69.80
68433;DHT22;55412;51.350;17.056;2022-10-16T15:51:21;19.50;69.90
68433;DHT22;55412;51.350;17.056;2022-10-16T15:53:47;19.40;70.00
68433;DHT22;55412;51.350;17.056;2022-10-16T15:56:14;19.40;70.20
68433;DHT22;55412;51.350;17.056;2022-10-16T15:58:41;19.30;70.30
68433;DHT22;55412;51.350;17.056;2022-10-16T16:01:08;19.20;70.40
68433;DHT22;55412;51.350;17.056;2022-10-16T16:03:36;19.20;70.60
68433;DHT22;55412;51.350;17.056;2022-10-16T16:06:07;19.10;70.80
68433;DHT22;55412;51.350;17.056;2022-10-16T16:08:34;19.00;71.00
68433;DHT22;55412;51.350;17.056;2022-10-16T16:11:06;18.90;71.40
68433;DHT22;55412;51.350;17.056;2022-10-16T16:13:35;18.80;71.50
68433;DHT22;55412;51.350;17.056;2022-10-16T16:16:08;18.70;71.80
68433;DHT22;55412;51.350;17.056;2022-10-16T16:18:36;18.70;72.00
68433;DHT22;55412;51.350;17.056;2022-10-16T16:21:04;18.60;72.20
68433;DHT22;55412;51.350;17.056;2022-10-16T16:23:30;18.50;72.50
68433;DHT22;55412;51.350;17.056;2022-10-16T16:28:42;18.40;73.30
68433;DHT22;55412;51.350;17.056;2022-10-16T16:31:09;18.40;73.40
68433;DHT22;55412;51.350;17.056;2022-10-16T16:33:35;18.30;73.50
68433;DHT22;55412;51.350;17.056;2022-10-16T16:36:04;18.30;73.70
68433;DHT22;55412;51.350;17.056;2022-10-16T16:38:33;18.20;73.90
68433;DHT22;55412;51.350;17.056;2022-10-16T16:41:10;18.20;74.10
68433;DHT22;55412;51.350;17.056;2022-10-16T16:43:40;18.10;74.40
68433;DHT22;55412;51.350;17.056;2022-10-16T16:46:06;18.10;75.00
68433;DHT22;55412;51.350;17.056;2022-10-16T16:48:32;18.10;75.10
68433;DHT22;55412;51.350;17.056;2022-10-16T16:51:19;18.00;75.10
68433;DHT22;55412;51.350;17.056;2022-10-16T16:53:47;18.00;75.30
68433;DHT22;55412;51.350;17.056;2022-10-16T16:56:15;17.90;75.40
68433;DHT22;55412;51.350;17.056;2022-10-16T16:58:44;17.90;75.50
68433;DHT22;55412;51.350;17.056;2022-10-16T17:01:11;17.90;75.60
68433;DHT22;55412;51.350;17.056;2022-10-16T17:03:38;17.90;75.60
68433;DHT22;55412;51.350;17.056;2022-10-16T17:06:08;17.90;75.70
68433;DHT22;55412;51.350;17.056;2022-10-16T17:08:35;17.90;75.60
68433;DHT22;55412;51.350;17.056;2022-10-16T17:11:04;17.90;75.60
68433;DHT22;55412;51.350;17.056;2022-10-16T17:13:37;17.90;75.90
68433;DHT22;55412;51.350;17.056;2022-10-16T17:16:05;17.90;75.80
68433;DHT22;55412;51.350;17.056;2022-10-16T17:18:32;18.00;75.60
68433;DHT22;55412;51.350;17.056;2022-10-16T17:20:59;18.00;75.50
68433;DHT22;55412;51.350;17.056;2022-10-16T17:23:27;18.00;75.40
68433;DHT22;55412;51.350;17.056;2022-10-16T17:25:53;18.00;75.60
68433;DHT22;55412;51.350;17.056;2022-10-16T17:28:20;18.00;75.60
68433;DHT22;55412;51.350;17.056;2022-10-16T17:30:46;18.00;75.50
68433;DHT22;55412;51.350;17.056;2022-10-16T17:33:13;18.10;75.60
68433;DHT22;55412;51.350;17.056;2022-10-16T17:35:42;18.00;75.50
68433;DHT22;55412;51.350;17.056;2022-10-16T17:38:11;18.00;75.60
68433;DHT22;55412;51.350;17.056;2022-10-16T17:40:39;18.10;75.60
68433;DHT22;55412;51.350;17.056;2022-10-16T17:43:07;18.00;75.60